sensor_id;sensor_type;location;lat;lon;timestamp;P1;durP1;ratioP1;P2;durP2;ratioP2
59907;SDS011;61804;54.926;73.496;2023-03-01T00:00:30;7.68;;;5.78;;
59907;SDS011;61804;54.926;73.496;2023-03-01T00:02:58;6.70;;;6.10;;
59907;SDS011;61804;54.926;73.496;2023-03-01T00:05:26;8.07;;;5.88;;
59907;SDS011;61804;54.926;73.496;2023-03-01T00:08:08;10.63;;;9.15;;
59907;SDS011;61804;54.926;73.496;2023-03-01T00:10:45;6.50;;;5.20;;
59907;SDS011;61804;54.926;73.496;2023-03-01T00:13:23;4.70;;;3.17;;
59907;SDS011;61804;54.926;73.496;2023-03-01T00:16:01;2.65;;;2.30;;
59907;SDS011;61804;54.926;73.496;2023-03-01T00:20:59;2.38;;;2.17;;
59907;SDS011;61804;54.926;73.496;2023-03-01T00:23:27;2.25;;;2.08;;
59907;SDS011;61804;54.926;73.496;2023-03-01T00:25:56;4.20;;;3.10;;
59907;SDS011;61804;54.926;73.496;2023-03-01T00:28:24;3.67;;;3.00;;
59907;SDS011;61804;54.926;73.496;2023-03-01T00:30:52;5.05;;;4.53;;
59907;SDS011;61804;54.926;73.496;2023-03-01T00:33:20;5.60;;;3.90;;
59907;SDS011;61804;54.926;73.496;2023-03-01T00:35:52;5.03;;;3.47;;
59907;SDS011;61804;54.926;73.496;2023-03-01T00:38:25;6.95;;;3.58;;
59907;SDS011;61804;54.926;73.496;2023-03-01T00:41:08;4.40;;;3.88;;
59907;SDS011;61804;54.926;73.496;2023-03-01T00:43:38;7.65;;;5.25;;
59907;SDS011;61804;54.926;73.496;2023-03-01T00:46:16;4.68;;;3.83;;
59907;SDS011;61804;54.926;73.496;2023-03-01T00:48:54;5.88;;;3.92;;
59907;SDS011;61804;54.926;73.496;2023-03-01T00:51:31;4.88;;;3.95;;
59907;SDS011;61804;54.926;73.496;2023-03-01T00:54:03;4.25;;;2.88;;
59907;SDS011;61804;54.926;73.496;2023-03-01T00:57:08;3.13;;;2.67;;
59907;SDS011;61804;54.926;73.496;2023-03-01T00:59:54;3.72;;;3.35;;
59907;SDS011;61804;54.926;73.496;2023-03-01T01:02:34;3.58;;;3.20;;
59907;SDS011;61804;54.926;73.496;2023-03-01T01:05:27;3.85;;;3.35;;
59907;SDS011;61804;54.926;73.496;2023-03-01T01:08:07;4.40;;;3.58;;
59907;SDS011;61804;54.926;73.496;2023-03-01T01:10:42;3.58;;;3.25;;
59907;SDS011;61804;54.926;73.496;2023-03-01T01:13:17;4.72;;;3.55;;
59907;SDS011;61804;54.926;73.496;2023-03-01T01:16:21;4.43;;;3.65;;
59907;SDS011;61804;54.926;73.496;2023-03-01T01:21:59;5.15;;;3.40;;
59907;SDS011;61804;54.926;73.496;2023-03-01T01:28:19;4.03;;;3.63;;
59907;SDS011;61804;54.926;73.496;2023-03-01T01:30:58;7.43;;;4.75;;
59907;SDS011;61804;54.926;73.496;2023-03-01T01:33:31;5.55;;;4.00;;
59907;SDS011;61804;54.926;73.496;2023-03-01T01:36:25;3.90;;;3.23;;
59907;SDS011;61804;54.926;73.496;2023-03-01T01:39:04;29.30;;;18.85;;
59907;SDS011;61804;54.926;73.496;2023-03-01T01:41:34;23.13;;;14.80;;
59907;SDS011;61804;54.926;73.496;2023-03-01T01:44:19;18.75;;;13.15;;
59907;SDS011;61804;54.926;73.496;2023-03-01T01:46:49;11.65;;;10.35;;
59907;SDS011;61804;54.926;73.496;2023-03-01T01:55:07;7.93;;;6.47;;
59907;SDS011;61804;54.926;73.496;2023-03-01T01:57:51;9.65;;;6.95;;
59907;SDS011;61804;54.926;73.496;2023-03-01T02:00:29;6.45;;;5.75;;
59907;SDS011;61804;54.926;73.496;2023-03-01T02:03:32;9.25;;;8.07;;
59907;SDS011;61804;54.926;73.496;2023-03-01T02:06:42;11.35;;;6.35;;
59907;SDS011;61804;54.926;73.496;2023-03-01T02:09:24;6.22;;;5.63;;
59907;SDS011;61804;54.926;73.496;2023-03-01T02:12:21;6.25;;;5.07;;
59907;SDS011;61804;54.926;73.496;2023-03-01T02:15:22;6.88;;;6.20;;
59907;SDS011;61804;54.926;73.496;2023-03-01T02:17:54;6.53;;;5.18;;
59907;SDS011;61804;54.926;73.496;2023-03-01T02:20:50;7.70;;;6.45;;
59907;SDS011;61804;54.926;73.496;2023-03-01T02:23:36;6.43;;;5.50;;
59907;SDS011;61804;54.926;73.496;2023-03-01T02:26:50;11.05;;;9.07;;
59907;SDS011;61804;54.926;73.496;2023-03-01T02:28:52;11.05;;;7.88;;
59907;SDS011;61804;54.926;73.496;2023-03-01T02:31:29;12.82;;;11.52;;
59907;SDS011;61804;54.926;73.496;2023-03-01T02:34:10;6.18;;;5.60;;
59907;SDS011;61804;54.926;73.496;2023-03-01T02:36:54;9.98;;;8.68;;
59907;SDS011;61804;54.926;73.496;2023-03-01T02:39:27;7.10;;;6.37;;
59907;SDS011;61804;54.926;73.496;2023-03-01T02:41:56;6.13;;;5.10;;
59907;SDS011;61804;54.926;73.496;2023-03-01T02:44:25;6.85;;;6.15;;
59907;SDS011;61804;54.926;73.496;2023-03-01T02:47:03;7.03;;;6.30;;
59907;SDS011;61804;54.926;73.496;2023-03-01T02:49:33;5.70;;;4.00;;
59907;SDS011;61804;54.926;73.496;2023-03-01T02:54:47;23.73;;;15.82;;
59907;SDS011;61804;54.926;73.496;2023-03-01T02:57:21;21.23;;;14.35;;
59907;SDS011;61804;54.926;73.496;2023-03-01T03:00:11;68.05;;;39.53;;
59907;SDS011;61804;54.926;73.496;2023-03-01T03:02:56;16.58;;;10.35;;
59907;SDS011;61804;54.926;73.496;2023-03-01T03:05:26;20.95;;;11.93;;
59907;SDS011;61804;54.926;73.496;2023-03-01T03:07:58;10.13;;;7.18;;
59907;SDS011;61804;54.926;73.496;2023-03-01T03:10:28;5.40;;;4.90;;
59907;SDS011;61804;54.926;73.496;2023-03-01T03:13:02;10.45;;;7.20;;
59907;SDS011;61804;54.926;73.496;2023-03-01T03:15:31;6.15;;;5.40;;
59907;SDS011;61804;54.926;73.496;2023-03-01T03:17:58;4.38;;;3.55;;
59907;SDS011;61804;54.926;73.496;2023-03-01T03:20:26;4.72;;;3.20;;
59907;SDS011;61804;54.926;73.496;2023-03-01T03:22:56;3.55;;;3.15;;
59907;SDS011;61804;54.926;73.496;2023-03-01T03:25:25;3.10;;;2.20;;
59907;SDS011;61804;54.926;73.496;2023-03-01T03:27:53;8.00;;;3.33;;
59907;SDS011;61804;54.926;73.496;2023-03-01T03:30:29;4.28;;;3.42;;
59907;SDS011;61804;54.926;73.496;2023-03-01T03:32:57;3.47;;;3.10;;
59907;SDS011;61804;54.926;73.496;2023-03-01T03:35:26;4.13;;;3.70;;
59907;SDS011;61804;54.926;73.496;2023-03-01T03:38:05;3.60;;;3.30;;
59907;SDS011;61804;54.926;73.496;2023-03-01T03:40:39;6.55;;;3.92;;
59907;SDS011;61804;54.926;73.496;2023-03-01T03:43:08;3.20;;;2.25;;
59907;SDS011;61804;54.926;73.496;2023-03-01T03:45:45;2.72;;;1.80;;
59907;SDS011;61804;54.926;73.496;2023-03-01T03:48:19;7.40;;;3.95;;
59907;SDS011;61804;54.926;73.496;2023-03-01T03:50:48;4.32;;;3.75;;
59907;SDS011;61804;54.926;73.496;2023-03-01T03:53:16;7.20;;;3.90;;
59907;SDS011;61804;54.926;73.496;2023-03-01T03:55:49;7.82;;;5.10;;
59907;SDS011;61804;54.926;73.496;2023-03-01T03:58:18;5.82;;;4.25;;
59907;SDS011;61804;54.926;73.496;2023-03-01T04:00:56;4.82;;;2.72;;
59907;SDS011;61804;54.926;73.496;2023-03-01T04:03:25;3.63;;;2.88;;
59907;SDS011;61804;54.926;73.496;2023-03-01T04:06:03;4.97;;;3.50;;
59907;SDS011;61804;54.926;73.496;2023-03-01T04:08:32;4.50;;;4.00;;
59907;SDS011;61804;54.926;73.496;2023-03-01T04:11:01;3.83;;;3.28;;
59907;SDS011;61804;54.926;73.496;2023-03-01T04:13:49;9.45;;;6.68;;
59907;SDS011;61804;54.926;73.496;2023-03-01T04:16:17;10.32;;;7.10;;
59907;SDS011;61804;54.926;73.496;2023-03-01T04:18:44;5.47;;;4.97;;
59907;SDS011;61804;54.926;73.496;2023-03-01T04:21:13;9.25;;;3.97;;
59907;SDS011;61804;54.926;73.496;2023-03-01T04:23:41;5.32;;;4.22;;
59907;SDS011;61804;54.926;73.496;2023-03-01T04:26:08;6.90;;;4.90;;
59907;SDS011;61804;54.926;73.496;2023-03-01T04:28:38;5.30;;;3.83;;
59907;SDS011;61804;54.926;73.496;2023-03-01T04:31:17;3.83;;;3.13;;
59907;SDS011;61804;54.926;73.496;2023-03-01T04:36:17;20.35;;;4.78;;
59907;SDS011;61804;54.926;73.496;2023-03-01T04:38:44;11.10;;;5.93;;
59907;SDS011;61804;54.926;73.496;2023-03-01T04:41:19;11.65;;;6.97;;
59907;SDS011;61804;54.926;73.496;2023-03-01T04:43:47;7.78;;;4.43;;
59907;SDS011;61804;54.926;73.496;2023-03-01T04:46:17;15.10;;;9.55;;
59907;SDS011;61804;54.926;73.496;2023-03-01T04:48:49;19.02;;;12.02;;
59907;SDS011;61804;54.926;73.496;2023-03-01T04:51:17;10.27;;;6.43;;
59907;SDS011;61804;54.926;73.496;2023-03-01T04:53:46;6.03;;;5.30;;
59907;SDS011;61804;54.926;73.496;2023-03-01T04:56:19;9.30;;;6.93;;
59907;SDS011;61804;54.926;73.496;2023-03-01T04:58:59;11.57;;;7.03;;
59907;SDS011;61804;54.926;73.496;2023-03-01T05:01:27;8.18;;;7.03;;
59907;SDS011;61804;54.926;73.496;2023-03-01T05:03:55;8.98;;;5.88;;
59907;SDS011;61804;54.926;73.496;2023-03-01T05:06:33;6.88;;;5.72;;
59907;SDS011;61804;54.926;73.496;2023-03-01T05:09:01;11.55;;;8.38;;
59907;SDS011;61804;54.926;73.496;2023-03-01T05:11:29;9.45;;;5.93;;
59907;SDS011;61804;54.926;73.496;2023-03-01T05:14:00;6.88;;;5.15;;
59907;SDS011;61804;54.926;73.496;2023-03-01T05:16:28;8.05;;;7.22;;
59907;SDS011;61804;54.926;73.496;2023-03-01T05:19:07;10.05;;;5.68;;
59907;SDS011;61804;54.926;73.496;2023-03-01T05:21:42;6.95;;;6.10;;
59907;SDS011;61804;54.926;73.496;2023-03-01T05:24:28;7.10;;;6.40;;
59907;SDS011;61804;54.926;73.496;2023-03-01T05:26:57;6.40;;;5.40;;
59907;SDS011;61804;54.926;73.496;2023-03-01T05:29:25;6.22;;;5.63;;
59907;SDS011;61804;54.926;73.496;2023-03-01T05:31:59;9.50;;;6.95;;
59907;SDS011;61804;54.926;73.496;2023-03-01T05:34:29;6.78;;;6.28;;
59907;SDS011;61804;54.926;73.496;2023-03-01T05:37:07;6.35;;;5.75;;
59907;SDS011;61804;54.926;73.496;2023-03-01T05:39:35;7.57;;;6.25;;
59907;SDS011;61804;54.926;73.496;2023-03-01T05:42:09;9.20;;;5.50;;
59907;SDS011;61804;54.926;73.496;2023-03-01T05:44:38;8.35;;;5.97;;
59907;SDS011;61804;54.926;73.496;2023-03-01T05:47:05;7.68;;;6.05;;
59907;SDS011;61804;54.926;73.496;2023-03-01T05:49:42;10.07;;;7.05;;
59907;SDS011;61804;54.926;73.496;2023-03-01T05:52:10;5.25;;;4.63;;
59907;SDS011;61804;54.926;73.496;2023-03-01T05:54:37;8.02;;;6.80;;
59907;SDS011;61804;54.926;73.496;2023-03-01T05:57:09;6.07;;;5.57;;
59907;SDS011;61804;54.926;73.496;2023-03-01T05:59:36;5.35;;;4.57;;
59907;SDS011;61804;54.926;73.496;2023-03-01T06:02:05;6.72;;;4.95;;
59907;SDS011;61804;54.926;73.496;2023-03-01T06:04:33;16.40;;;13.02;;
59907;SDS011;61804;54.926;73.496;2023-03-01T06:07:00;13.52;;;8.70;;
59907;SDS011;61804;54.926;73.496;2023-03-01T06:09:27;9.35;;;6.22;;
59907;SDS011;61804;54.926;73.496;2023-03-01T06:11:59;9.25;;;8.32;;
59907;SDS011;61804;54.926;73.496;2023-03-01T06:14:26;7.75;;;6.63;;
59907;SDS011;61804;54.926;73.496;2023-03-01T06:16:54;5.78;;;4.40;;
59907;SDS011;61804;54.926;73.496;2023-03-01T06:19:21;9.32;;;6.35;;
59907;SDS011;61804;54.926;73.496;2023-03-01T06:21:55;13.75;;;10.55;;
59907;SDS011;61804;54.926;73.496;2023-03-01T06:24:23;13.32;;;5.85;;
59907;SDS011;61804;54.926;73.496;2023-03-01T06:26:52;5.88;;;5.22;;
59907;SDS011;61804;54.926;73.496;2023-03-01T06:29:19;9.98;;;8.02;;
59907;SDS011;61804;54.926;73.496;2023-03-01T06:31:46;10.82;;;8.25;;
59907;SDS011;61804;54.926;73.496;2023-03-01T06:34:21;8.25;;;7.18;;
59907;SDS011;61804;54.926;73.496;2023-03-01T06:36:50;7.22;;;6.53;;
59907;SDS011;61804;54.926;73.496;2023-03-01T06:39:18;8.30;;;7.35;;
59907;SDS011;61804;54.926;73.496;2023-03-01T06:41:45;9.13;;;7.20;;
59907;SDS011;61804;54.926;73.496;2023-03-01T06:44:12;12.57;;;8.48;;
59907;SDS011;61804;54.926;73.496;2023-03-01T06:46:41;9.25;;;7.32;;
59907;SDS011;61804;54.926;73.496;2023-03-01T06:49:09;8.45;;;7.65;;
59907;SDS011;61804;54.926;73.496;2023-03-01T06:51:47;11.75;;;7.25;;
59907;SDS011;61804;54.926;73.496;2023-03-01T06:54:25;10.70;;;8.13;;
59907;SDS011;61804;54.926;73.496;2023-03-01T06:57:00;9.35;;;7.32;;
59907;SDS011;61804;54.926;73.496;2023-03-01T06:59:28;11.85;;;5.90;;
59907;SDS011;61804;54.926;73.496;2023-03-01T07:02:00;18.02;;;9.18;;
59907;SDS011;61804;54.926;73.496;2023-03-01T07:04:27;11.80;;;9.50;;
59907;SDS011;61804;54.926;73.496;2023-03-01T07:06:57;6.93;;;5.82;;
59907;SDS011;61804;54.926;73.496;2023-03-01T07:09:35;11.38;;;8.85;;
59907;SDS011;61804;54.926;73.496;2023-03-01T07:12:02;9.35;;;7.45;;
59907;SDS011;61804;54.926;73.496;2023-03-01T07:14:30;6.90;;;6.22;;
59907;SDS011;61804;54.926;73.496;2023-03-01T07:16:57;6.85;;;6.05;;
59907;SDS011;61804;54.926;73.496;2023-03-01T07:19:25;13.32;;;9.50;;
59907;SDS011;61804;54.926;73.496;2023-03-01T07:21:53;8.13;;;6.68;;
59907;SDS011;61804;54.926;73.496;2023-03-01T07:24:27;10.23;;;6.40;;
59907;SDS011;61804;54.926;73.496;2023-03-01T07:26:55;10.45;;;8.45;;
59907;SDS011;61804;54.926;73.496;2023-03-01T07:29:22;8.55;;;5.47;;
59907;SDS011;61804;54.926;73.496;2023-03-01T07:31:50;9.52;;;7.70;;
59907;SDS011;61804;54.926;73.496;2023-03-01T07:34:17;9.00;;;7.25;;
59907;SDS011;61804;54.926;73.496;2023-03-01T07:36:49;11.05;;;7.43;;
59907;SDS011;61804;54.926;73.496;2023-03-01T07:39:19;10.88;;;8.70;;
59907;SDS011;61804;54.926;73.496;2023-03-01T07:41:47;9.70;;;7.18;;
59907;SDS011;61804;54.926;73.496;2023-03-01T07:44:14;8.77;;;6.45;;
59907;SDS011;61804;54.926;73.496;2023-03-01T07:46:42;10.88;;;8.55;;
59907;SDS011;61804;54.926;73.496;2023-03-01T07:49:10;11.00;;;9.93;;
59907;SDS011;61804;54.926;73.496;2023-03-01T07:51:42;17.88;;;14.35;;
59907;SDS011;61804;54.926;73.496;2023-03-01T07:54:10;17.95;;;9.82;;
59907;SDS011;61804;54.926;73.496;2023-03-01T07:56:38;21.65;;;15.10;;
59907;SDS011;61804;54.926;73.496;2023-03-01T07:59:07;34.67;;;22.75;;
59907;SDS011;61804;54.926;73.496;2023-03-01T08:01:41;24.58;;;15.48;;
59907;SDS011;61804;54.926;73.496;2023-03-01T08:04:10;20.25;;;14.70;;
59907;SDS011;61804;54.926;73.496;2023-03-01T08:06:37;7.75;;;6.97;;
59907;SDS011;61804;54.926;73.496;2023-03-01T08:09:05;14.35;;;7.45;;
59907;SDS011;61804;54.926;73.496;2023-03-01T08:11:37;6.00;;;5.35;;
59907;SDS011;61804;54.926;73.496;2023-03-01T08:14:05;7.03;;;5.82;;
59907;SDS011;61804;54.926;73.496;2023-03-01T08:16:33;6.90;;;5.82;;
59907;SDS011;61804;54.926;73.496;2023-03-01T08:19:06;10.32;;;7.78;;
59907;SDS011;61804;54.926;73.496;2023-03-01T08:21:35;25.35;;;13.23;;
59907;SDS011;61804;54.926;73.496;2023-03-01T08:24:04;21.23;;;10.77;;
59907;SDS011;61804;54.926;73.496;2023-03-01T08:26:37;32.90;;;18.45;;
59907;SDS011;61804;54.926;73.496;2023-03-01T08:29:06;17.00;;;13.13;;
59907;SDS011;61804;54.926;73.496;2023-03-01T08:31:37;13.88;;;10.15;;
59907;SDS011;61804;54.926;73.496;2023-03-01T08:34:11;40.10;;;19.80;;
59907;SDS011;61804;54.926;73.496;2023-03-01T08:36:44;11.70;;;9.20;;
59907;SDS011;61804;54.926;73.496;2023-03-01T08:39:14;10.88;;;7.35;;
59907;SDS011;61804;54.926;73.496;2023-03-01T08:41:41;11.32;;;7.38;;
59907;SDS011;61804;54.926;73.496;2023-03-01T08:44:10;10.05;;;6.10;;
59907;SDS011;61804;54.926;73.496;2023-03-01T08:46:40;7.88;;;6.28;;
59907;SDS011;61804;54.926;73.496;2023-03-01T08:49:16;8.95;;;5.35;;
59907;SDS011;61804;54.926;73.496;2023-03-01T08:51:44;7.30;;;6.50;;
59907;SDS011;61804;54.926;73.496;2023-03-01T08:54:21;9.63;;;7.18;;
59907;SDS011;61804;54.926;73.496;2023-03-01T08:56:54;13.20;;;10.13;;
59907;SDS011;61804;54.926;73.496;2023-03-01T08:59:21;7.00;;;6.30;;
59907;SDS011;61804;54.926;73.496;2023-03-01T09:01:59;8.63;;;5.95;;
59907;SDS011;61804;54.926;73.496;2023-03-01T09:04:26;7.68;;;6.68;;
59907;SDS011;61804;54.926;73.496;2023-03-01T09:06:55;7.57;;;6.85;;
59907;SDS011;61804;54.926;73.496;2023-03-01T09:09:23;10.52;;;8.77;;
59907;SDS011;61804;54.926;73.496;2023-03-01T09:11:51;22.83;;;11.98;;
59907;SDS011;61804;54.926;73.496;2023-03-01T09:14:28;10.23;;;7.75;;
59907;SDS011;61804;54.926;73.496;2023-03-01T09:17:05;7.50;;;6.78;;
59907;SDS011;61804;54.926;73.496;2023-03-01T09:19:38;6.93;;;6.32;;
59907;SDS011;61804;54.926;73.496;2023-03-01T09:22:12;7.60;;;6.55;;
59907;SDS011;61804;54.926;73.496;2023-03-01T09:24:39;7.82;;;7.03;;
59907;SDS011;61804;54.926;73.496;2023-03-01T09:27:07;9.02;;;7.78;;
59907;SDS011;61804;54.926;73.496;2023-03-01T09:29:36;10.80;;;9.77;;
59907;SDS011;61804;54.926;73.496;2023-03-01T09:32:15;9.55;;;8.55;;
59907;SDS011;61804;54.926;73.496;2023-03-01T09:34:43;9.13;;;6.40;;
59907;SDS011;61804;54.926;73.496;2023-03-01T09:37:37;10.07;;;7.70;;
59907;SDS011;61804;54.926;73.496;2023-03-01T09:40:06;9.88;;;7.20;;
59907;SDS011;61804;54.926;73.496;2023-03-01T09:42:37;7.65;;;6.30;;
59907;SDS011;61804;54.926;73.496;2023-03-01T09:47:39;7.72;;;6.72;;
59907;SDS011;61804;54.926;73.496;2023-03-01T09:50:17;14.75;;;6.68;;
59907;SDS011;61804;54.926;73.496;2023-03-01T09:53:05;6.70;;;5.20;;
59907;SDS011;61804;54.926;73.496;2023-03-01T09:55:39;8.35;;;6.15;;
59907;SDS011;61804;54.926;73.496;2023-03-01T10:01:35;8.63;;;7.18;;
59907;SDS011;61804;54.926;73.496;2023-03-01T10:09:43;8.85;;;6.65;;
59907;SDS011;61804;54.926;73.496;2023-03-01T10:12:17;7.65;;;6.78;;
59907;SDS011;61804;54.926;73.496;2023-03-01T10:15:30;12.50;;;8.30;;
59907;SDS011;61804;54.926;73.496;2023-03-01T10:17:56;9.70;;;8.68;;
59907;SDS011;61804;54.926;73.496;2023-03-01T10:20:29;6.25;;;5.50;;
59907;SDS011;61804;54.926;73.496;2023-03-01T10:22:57;9.73;;;7.13;;
59907;SDS011;61804;54.926;73.496;2023-03-01T10:28:20;5.97;;;5.32;;
59907;SDS011;61804;54.926;73.496;2023-03-01T10:30:52;7.15;;;6.45;;
59907;SDS011;61804;54.926;73.496;2023-03-01T10:33:22;10.55;;;6.03;;
59907;SDS011;61804;54.926;73.496;2023-03-01T10:35:55;6.75;;;6.07;;
59907;SDS011;61804;54.926;73.496;2023-03-01T10:38:23;10.43;;;6.82;;
59907;SDS011;61804;54.926;73.496;2023-03-01T10:41:04;9.98;;;6.50;;
59907;SDS011;61804;54.926;73.496;2023-03-01T10:46:04;6.50;;;5.82;;
59907;SDS011;61804;54.926;73.496;2023-03-01T10:51:48;10.85;;;7.85;;
59907;SDS011;61804;54.926;73.496;2023-03-01T10:54:28;13.52;;;8.77;;
59907;SDS011;61804;54.926;73.496;2023-03-01T10:56:57;8.82;;;7.88;;
59907;SDS011;61804;54.926;73.496;2023-03-01T10:59:35;8.25;;;7.03;;
59907;SDS011;61804;54.926;73.496;2023-03-01T11:02:11;12.25;;;8.82;;
59907;SDS011;61804;54.926;73.496;2023-03-01T11:04:59;7.68;;;7.03;;
59907;SDS011;61804;54.926;73.496;2023-03-01T11:07:27;10.25;;;8.73;;
59907;SDS011;61804;54.926;73.496;2023-03-01T11:10:06;17.98;;;11.35;;
59907;SDS011;61804;54.926;73.496;2023-03-01T11:12:51;11.82;;;10.63;;
59907;SDS011;61804;54.926;73.496;2023-03-01T11:15:27;10.82;;;8.02;;
59907;SDS011;61804;54.926;73.496;2023-03-01T11:17:55;8.15;;;7.07;;
59907;SDS011;61804;54.926;73.496;2023-03-01T11:20:24;7.70;;;6.95;;
59907;SDS011;61804;54.926;73.496;2023-03-01T11:22:54;13.93;;;10.93;;
59907;SDS011;61804;54.926;73.496;2023-03-01T11:25:37;8.10;;;7.28;;
59907;SDS011;61804;54.926;73.496;2023-03-01T11:28:05;7.70;;;6.70;;
59907;SDS011;61804;54.926;73.496;2023-03-01T11:30:56;8.93;;;7.15;;
59907;SDS011;61804;54.926;73.496;2023-03-01T11:39:21;20.67;;;14.00;;
59907;SDS011;61804;54.926;73.496;2023-03-01T11:44:52;7.50;;;6.72;;
59907;SDS011;61804;54.926;73.496;2023-03-01T11:50:29;13.27;;;8.95;;
59907;SDS011;61804;54.926;73.496;2023-03-01T12:06:17;12.65;;;7.63;;
59907;SDS011;61804;54.926;73.496;2023-03-01T12:17:05;10.18;;;8.63;;
59907;SDS011;61804;54.926;73.496;2023-03-01T12:19:41;20.85;;;16.95;;
59907;SDS011;61804;54.926;73.496;2023-03-01T12:41:33;13.32;;;10.25;;
59907;SDS011;61804;54.926;73.496;2023-03-01T12:47:02;14.35;;;10.13;;
59907;SDS011;61804;54.926;73.496;2023-03-01T12:49:38;12.30;;;10.82;;
59907;SDS011;61804;54.926;73.496;2023-03-01T12:54:39;11.35;;;9.25;;
59907;SDS011;61804;54.926;73.496;2023-03-01T12:59:48;11.65;;;9.02;;
59907;SDS011;61804;54.926;73.496;2023-03-01T13:07:34;23.08;;;17.77;;
59907;SDS011;61804;54.926;73.496;2023-03-01T13:10:34;17.35;;;11.63;;
59907;SDS011;61804;54.926;73.496;2023-03-01T13:13:20;30.60;;;20.67;;
59907;SDS011;61804;54.926;73.496;2023-03-01T13:15:49;22.58;;;14.05;;
59907;SDS011;61804;54.926;73.496;2023-03-01T13:20:50;24.85;;;17.17;;
59907;SDS011;61804;54.926;73.496;2023-03-01T13:29:52;18.60;;;13.85;;
59907;SDS011;61804;54.926;73.496;2023-03-01T13:32:36;14.70;;;11.82;;
59907;SDS011;61804;54.926;73.496;2023-03-01T13:37:53;24.50;;;18.00;;
59907;SDS011;61804;54.926;73.496;2023-03-01T13:46:16;12.00;;;10.80;;
59907;SDS011;61804;54.926;73.496;2023-03-01T13:48:47;13.32;;;11.20;;
59907;SDS011;61804;54.926;73.496;2023-03-01T13:51:16;13.88;;;11.68;;
59907;SDS011;61804;54.926;73.496;2023-03-01T13:53:47;15.35;;;9.40;;
59907;SDS011;61804;54.926;73.496;2023-03-01T13:56:21;17.48;;;13.32;;
59907;SDS011;61804;54.926;73.496;2023-03-01T13:59:33;17.27;;;12.93;;
59907;SDS011;61804;54.926;73.496;2023-03-01T14:01:41;18.70;;;11.98;;
59907;SDS011;61804;54.926;73.496;2023-03-01T14:07:11;23.20;;;16.88;;
59907;SDS011;61804;54.926;73.496;2023-03-01T14:09:45;23.80;;;15.23;;
59907;SDS011;61804;54.926;73.496;2023-03-01T14:17:59;21.60;;;11.48;;
59907;SDS011;61804;54.926;73.496;2023-03-01T14:20:37;11.63;;;9.77;;
59907;SDS011;61804;54.926;73.496;2023-03-01T14:23:14;15.32;;;10.80;;
59907;SDS011;61804;54.926;73.496;2023-03-01T14:25:56;12.98;;;10.27;;
59907;SDS011;61804;54.926;73.496;2023-03-01T14:28:29;18.00;;;12.65;;
59907;SDS011;61804;54.926;73.496;2023-03-01T14:30:59;13.00;;;10.43;;
59907;SDS011;61804;54.926;73.496;2023-03-01T14:33:34;14.07;;;11.00;;
59907;SDS011;61804;54.926;73.496;2023-03-01T14:36:04;9.32;;;8.40;;
59907;SDS011;61804;54.926;73.496;2023-03-01T14:38:40;14.68;;;12.52;;
59907;SDS011;61804;54.926;73.496;2023-03-01T14:41:25;13.88;;;10.50;;
59907;SDS011;61804;54.926;73.496;2023-03-01T14:46:32;11.35;;;9.82;;
59907;SDS011;61804;54.926;73.496;2023-03-01T14:51:34;20.75;;;13.77;;
59907;SDS011;61804;54.926;73.496;2023-03-01T14:56:53;18.38;;;16.02;;
59907;SDS011;61804;54.926;73.496;2023-03-01T14:59:21;18.90;;;12.30;;
59907;SDS011;61804;54.926;73.496;2023-03-01T15:02:01;20.30;;;16.10;;
59907;SDS011;61804;54.926;73.496;2023-03-01T15:04:34;20.27;;;15.60;;
59907;SDS011;61804;54.926;73.496;2023-03-01T15:07:01;20.58;;;13.13;;
59907;SDS011;61804;54.926;73.496;2023-03-01T15:09:37;25.90;;;15.48;;
59907;SDS011;61804;54.926;73.496;2023-03-01T15:12:53;28.42;;;17.98;;
59907;SDS011;61804;54.926;73.496;2023-03-01T15:15:18;31.30;;;18.70;;
59907;SDS011;61804;54.926;73.496;2023-03-01T15:17:50;20.25;;;13.65;;
59907;SDS011;61804;54.926;73.496;2023-03-01T15:21:09;23.17;;;13.50;;
59907;SDS011;61804;54.926;73.496;2023-03-01T15:23:47;20.30;;;18.13;;
59907;SDS011;61804;54.926;73.496;2023-03-01T15:26:26;29.92;;;16.83;;
59907;SDS011;61804;54.926;73.496;2023-03-01T15:28:55;15.77;;;10.32;;
59907;SDS011;61804;54.926;73.496;2023-03-01T15:31:32;14.00;;;12.40;;
59907;SDS011;61804;54.926;73.496;2023-03-01T15:34:23;28.70;;;16.13;;
59907;SDS011;61804;54.926;73.496;2023-03-01T15:37:04;17.63;;;11.90;;
59907;SDS011;61804;54.926;73.496;2023-03-01T15:42:10;30.23;;;20.80;;
59907;SDS011;61804;54.926;73.496;2023-03-01T15:44:49;25.45;;;13.63;;
59907;SDS011;61804;54.926;73.496;2023-03-01T15:49:57;41.67;;;23.05;;
59907;SDS011;61804;54.926;73.496;2023-03-01T15:52:27;25.65;;;18.25;;
59907;SDS011;61804;54.926;73.496;2023-03-01T15:55:03;36.20;;;19.38;;
59907;SDS011;61804;54.926;73.496;2023-03-01T15:58:15;39.45;;;22.23;;
59907;SDS011;61804;54.926;73.496;2023-03-01T16:00:45;24.17;;;18.35;;
59907;SDS011;61804;54.926;73.496;2023-03-01T16:03:23;30.70;;;15.23;;
59907;SDS011;61804;54.926;73.496;2023-03-01T16:05:51;27.75;;;17.25;;
59907;SDS011;61804;54.926;73.496;2023-03-01T16:08:19;22.02;;;15.00;;
59907;SDS011;61804;54.926;73.496;2023-03-01T16:10:51;15.63;;;10.52;;
59907;SDS011;61804;54.926;73.496;2023-03-01T16:13:25;15.45;;;13.88;;
59907;SDS011;61804;54.926;73.496;2023-03-01T16:15:55;22.42;;;16.00;;
59907;SDS011;61804;54.926;73.496;2023-03-01T16:18:22;16.75;;;10.77;;
59907;SDS011;61804;54.926;73.496;2023-03-01T16:20:49;12.05;;;10.88;;
59907;SDS011;61804;54.926;73.496;2023-03-01T16:23:27;14.50;;;10.73;;
59907;SDS011;61804;54.926;73.496;2023-03-01T16:25:58;10.38;;;9.35;;
59907;SDS011;61804;54.926;73.496;2023-03-01T16:28:27;10.63;;;8.63;;
59907;SDS011;61804;54.926;73.496;2023-03-01T16:31:00;25.05;;;18.17;;
59907;SDS011;61804;54.926;73.496;2023-03-01T16:33:39;18.00;;;12.43;;
59907;SDS011;61804;54.926;73.496;2023-03-01T16:36:07;13.00;;;8.93;;
59907;SDS011;61804;54.926;73.496;2023-03-01T16:38:35;16.95;;;10.77;;
59907;SDS011;61804;54.926;73.496;2023-03-01T16:41:04;8.50;;;7.72;;
59907;SDS011;61804;54.926;73.496;2023-03-01T16:43:32;14.18;;;9.98;;
59907;SDS011;61804;54.926;73.496;2023-03-01T16:46:14;16.25;;;10.77;;
59907;SDS011;61804;54.926;73.496;2023-03-01T16:48:44;12.80;;;10.73;;
59907;SDS011;61804;54.926;73.496;2023-03-01T16:51:17;12.82;;;9.05;;
59907;SDS011;61804;54.926;73.496;2023-03-01T16:53:47;12.60;;;10.68;;
59907;SDS011;61804;54.926;73.496;2023-03-01T16:56:20;12.48;;;9.13;;
59907;SDS011;61804;54.926;73.496;2023-03-01T16:58:54;11.82;;;9.63;;
59907;SDS011;61804;54.926;73.496;2023-03-01T17:01:25;10.15;;;7.53;;
59907;SDS011;61804;54.926;73.496;2023-03-01T17:03:55;12.65;;;9.55;;
59907;SDS011;61804;54.926;73.496;2023-03-01T17:06:22;12.02;;;10.10;;
59907;SDS011;61804;54.926;73.496;2023-03-01T17:08:52;13.90;;;10.70;;
59907;SDS011;61804;54.926;73.496;2023-03-01T17:11:24;12.73;;;8.95;;
59907;SDS011;61804;54.926;73.496;2023-03-01T17:13:57;16.38;;;11.60;;
59907;SDS011;61804;54.926;73.496;2023-03-01T17:16:26;15.55;;;10.38;;
59907;SDS011;61804;54.926;73.496;2023-03-01T17:18:54;11.70;;;10.43;;
59907;SDS011;61804;54.926;73.496;2023-03-01T17:21:21;13.45;;;9.40;;
59907;SDS011;61804;54.926;73.496;2023-03-01T17:24:13;14.80;;;9.13;;
59907;SDS011;61804;54.926;73.496;2023-03-01T17:26:43;14.15;;;10.43;;